createdAt,value
2018-08-25T00:03:45.573Z,21.41
2018-08-25T00:09:40.588Z,23.07
2018-08-25T00:15:35.589Z,21.57
2018-08-25T00:21:30.567Z,26.7
2018-08-25T00:27:25.623Z,23.71
2018-08-25T00:33:20.608Z,23.27
2018-08-25T00:39:15.596Z,21.77
2018-08-25T00:45:10.601Z,25.82
2018-08-25T00:51:05.626Z,28.98
2018-08-25T00:57:00.593Z,22.15
2018-08-25T01:02:55.607Z,26.91
2018-08-25T01:08:50.652Z,24.57
2018-08-25T01:14:45.641Z,23.39
2018-08-25T01:20:40.623Z,24.02
2018-08-25T01:26:35.648Z,23.89
2018-08-25T01:32:30.613Z,22.07
2018-08-25T01:38:25.642Z,19.62
2018-08-25T01:44:20.648Z,23.77
2018-08-25T01:50:15.690Z,23.67
2018-08-25T01:56:10.630Z,22.87
2018-08-25T02:02:05.662Z,25.06
2018-08-25T02:08:00.697Z,22.92
2018-08-25T02:13:55.633Z,26.72
2018-08-25T02:19:50.675Z,22.71
2018-08-25T02:25:45.700Z,26.37
2018-08-25T02:31:40.667Z,22.36
2018-08-25T02:37:35.666Z,23.42
2018-08-25T02:43:30.668Z,25.62
2018-08-25T02:49:25.653Z,22.67
2018-08-25T02:55:20.683Z,27.95
2018-08-25T03:01:15.721Z,25.06
2018-08-25T03:07:10.706Z,24
2018-08-25T03:13:05.721Z,23.84
2018-08-25T03:19:00.726Z,27.16
2018-08-25T03:24:55.691Z,26.6
2018-08-25T03:30:50.713Z,23.9
2018-08-25T03:36:45.711Z,25.62
2018-08-25T03:42:40.681Z,24.9
2018-08-25T03:48:35.710Z,21.76
2018-08-25T03:54:30.694Z,25.93
2018-08-25T04:00:25.754Z,29.09
2018-08-25T04:06:20.730Z,24.45
2018-08-25T04:12:15.732Z,26.51
2018-08-25T04:18:10.750Z,27.74
2018-08-25T04:24:05.720Z,31.52
2018-08-25T04:30:00.758Z,31.79
2018-08-25T04:35:55.722Z,30.58
2018-08-25T04:41:50.721Z,25.72
2018-08-25T04:47:45.763Z,28.32
2018-08-25T04:53:40.788Z,26.82
2018-08-25T04:59:35.760Z,25.43
2018-08-25T05:05:30.764Z,29.81
2018-08-25T05:11:25.802Z,28.08
2018-08-25T05:17:20.756Z,26.91
2018-08-25T05:23:15.751Z,26.87
2018-08-25T05:29:10.798Z,24.3
2018-08-25T05:35:05.769Z,33.26
2018-08-25T05:41:00.773Z,279.42
2018-08-25T05:46:55.825Z,172.64
2018-08-25T05:52:50.812Z,109.25
2018-08-25T05:58:45.780Z,98.05
2018-08-25T06:04:40.781Z,95.19
2018-08-25T06:10:35.849Z,78.95
2018-08-25T06:16:30.816Z,42.59
2018-08-25T06:22:25.883Z,37.5
2018-08-25T06:28:20.805Z,40.98
2018-08-25T06:34:15.817Z,32.7
2018-08-25T06:40:10.838Z,31.58
2018-08-25T06:46:05.843Z,31.22
2018-08-25T06:52:00.812Z,34.96
2018-08-25T06:57:55.821Z,38.4
2018-08-25T07:03:50.894Z,38.49
2018-08-25T07:09:45.837Z,35.23
2018-08-25T07:15:40.831Z,30.33
2018-08-25T07:21:35.878Z,30.4
2018-08-25T07:27:30.837Z,27.42
2018-08-25T07:33:25.851Z,28.56
2018-08-25T07:39:20.882Z,38.39
2018-08-25T07:45:15.931Z,26.12
2018-08-25T07:51:10.862Z,25.7
2018-08-25T07:57:05.898Z,22.88
2018-08-25T08:03:00.908Z,25.79
2018-08-25T08:08:55.880Z,26.23
2018-08-25T08:14:50.893Z,20.61
2018-08-25T08:20:45.904Z,16.48
2018-08-25T08:26:40.901Z,20.3
2018-08-25T08:32:35.872Z,19.03
2018-08-25T08:38:30.958Z,19.23
2018-08-25T08:44:25.940Z,19.64
2018-08-25T08:50:20.976Z,16.7
2018-08-25T08:56:15.910Z,22.17
2018-08-25T09:02:10.914Z,19.84
2018-08-25T09:08:05.904Z,16
2018-08-25T09:14:00.897Z,22.97
2018-08-25T09:19:55.919Z,16.75
2018-08-25T09:25:50.914Z,14.01
2018-08-25T09:31:45.961Z,17.34
2018-08-25T09:37:40.921Z,15.72
2018-08-25T09:43:35.915Z,21.59
2018-08-25T09:49:30.948Z,17.31
2018-08-25T09:55:25.927Z,16.56
2018-08-25T10:01:20.937Z,19.39
2018-08-25T10:07:15.974Z,17.73
2018-08-25T10:13:10.963Z,20.14
2018-08-25T10:19:06.041Z,19.41
2018-08-25T10:25:00.977Z,18.29
2018-08-25T10:30:55.977Z,16.79
2018-08-25T10:36:50.990Z,18.09
2018-08-25T10:42:45.968Z,17.47
2018-08-25T10:48:40.970Z,12.73
2018-08-25T10:54:35.969Z,15.7
2018-08-25T11:00:31.218Z,14.32
2018-08-25T11:06:26.082Z,13.01
2018-08-25T11:12:20.997Z,12.66
2018-08-25T11:18:15.988Z,16.55
2018-08-25T11:24:11.002Z,12.84
2018-08-25T11:30:05.983Z,15.25
2018-08-25T11:36:01.041Z,11.69
2018-08-25T11:41:55.998Z,14.23
2018-08-25T11:47:51.009Z,13.55
2018-08-25T11:53:46.025Z,12.28
2018-08-25T11:59:41.050Z,15.2
2018-08-25T12:05:36.018Z,15.27
2018-08-25T12:11:31.058Z,15.37
2018-08-25T12:17:26.035Z,17.1
2018-08-25T12:23:21.021Z,13.84
2018-08-25T12:29:16.092Z,16.17
2018-08-25T12:35:11.085Z,15.69
2018-08-25T12:41:06.020Z,16.76
2018-08-25T12:47:01.042Z,13.02
2018-08-25T12:52:56.043Z,12.29
2018-08-25T12:58:51.050Z,13.53
2018-08-25T13:04:46.045Z,11.45
2018-08-25T13:10:41.086Z,10.1
2018-08-25T13:16:36.074Z,12.12
2018-08-25T13:22:31.144Z,10.36
2018-08-25T13:28:26.062Z,9.2
2018-08-25T13:34:21.054Z,10.8
2018-08-25T13:40:16.085Z,16.39
2018-08-25T13:46:11.094Z,8.66
2018-08-25T13:52:06.122Z,12.56
2018-08-25T13:58:01.111Z,14.36
2018-08-25T14:03:56.125Z,13.16
2018-08-25T14:09:51.171Z,15.78
2018-08-25T14:15:46.115Z,14.35
2018-08-25T14:21:41.127Z,14.2
2018-08-25T14:27:36.172Z,14.21
2018-08-25T14:33:31.109Z,12.9
2018-08-25T14:39:26.116Z,13.27
2018-08-25T14:45:21.153Z,12.37
2018-08-25T14:51:16.149Z,14.07
2018-08-25T14:57:11.126Z,15.29
2018-08-25T15:03:06.109Z,17.49
2018-08-25T15:09:01.150Z,17.19
2018-08-25T15:14:56.139Z,16.36
2018-08-25T15:20:51.133Z,14.6
2018-08-25T15:26:46.139Z,14.93
2018-08-25T15:32:41.169Z,12.57
2018-08-25T15:38:36.143Z,16.99
2018-08-25T15:44:31.179Z,14.47
2018-08-25T15:50:26.206Z,10.85
2018-08-25T15:56:21.197Z,14.89
2018-08-25T16:02:16.165Z,15.41
2018-08-25T16:08:11.211Z,12.94
2018-08-25T16:14:06.191Z,12.22
2018-08-25T16:20:01.475Z,16.2
2018-08-25T16:25:56.189Z,15.77
2018-08-25T16:31:51.185Z,12.34
2018-08-25T16:37:46.189Z,17.82
2018-08-25T16:43:41.203Z,20.28
2018-08-25T16:49:36.196Z,18.49
2018-08-25T16:55:31.189Z,14.65
2018-08-25T17:01:26.257Z,24.24
2018-08-25T17:07:21.209Z,29.39
2018-08-25T17:13:16.236Z,20.23
2018-08-25T17:19:11.232Z,21.13
2018-08-25T17:25:06.216Z,18.53
2018-08-25T17:31:01.219Z,25.93
2018-08-25T17:36:56.216Z,19.67
2018-08-25T17:42:51.246Z,25.31
2018-08-25T17:48:46.250Z,21.57
2018-08-25T17:54:41.242Z,26.15
2018-08-25T18:00:36.304Z,23.93
2018-08-25T18:06:31.264Z,25.6
2018-08-25T18:12:26.257Z,22.68
2018-08-25T18:18:21.273Z,38.56
2018-08-25T18:24:16.283Z,19.46
2018-08-25T18:30:11.356Z,19.08
2018-08-25T18:36:06.318Z,18.36
2018-08-25T18:42:01.273Z,25.9
2018-08-25T18:47:56.280Z,21.26
2018-08-25T18:53:51.350Z,20.77
2018-08-25T18:59:46.273Z,16.52
2018-08-25T19:05:41.288Z,27.35
2018-08-25T19:11:36.278Z,18.5
2018-08-25T19:17:31.296Z,25.65
2018-08-25T19:23:26.320Z,24.26
2018-08-25T19:29:21.291Z,26.97
2018-08-25T19:35:16.339Z,14.27
2018-08-25T19:41:11.368Z,24.89
2018-08-25T19:47:06.377Z,22.7
2018-08-25T19:53:01.463Z,17.86
2018-08-25T19:58:56.348Z,28.59
2018-08-25T20:04:51.337Z,20.82
2018-08-25T20:10:46.353Z,20.51
2018-08-25T20:16:41.349Z,24.17
2018-08-25T20:22:36.354Z,20.91
2018-08-25T20:28:31.356Z,22.92
2018-08-25T20:34:26.334Z,23.62
2018-08-25T20:40:21.359Z,22.7
2018-08-25T20:46:16.409Z,19.95
2018-08-25T20:52:11.383Z,28.32
2018-08-25T20:58:06.360Z,25.95
2018-08-25T21:04:01.364Z,25.18
2018-08-25T21:09:56.367Z,23.25
2018-08-25T21:15:51.430Z,25.06
2018-08-25T21:21:46.383Z,22.14
2018-08-25T21:27:41.375Z,19.19
2018-08-25T21:33:36.370Z,19.87
2018-08-25T21:39:31.455Z,21.6
2018-08-25T21:45:26.370Z,29.37
2018-08-25T21:51:21.439Z,21.42
2018-08-25T21:57:16.385Z,24.02
2018-08-25T22:03:11.383Z,22.73
2018-08-25T22:09:06.438Z,20.22
2018-08-25T22:15:01.396Z,20.74
2018-08-25T22:20:56.428Z,17.86
2018-08-25T22:26:51.469Z,18.72
2018-08-25T22:32:46.401Z,16.74
2018-08-25T22:38:41.446Z,15.85
2018-08-25T22:44:36.419Z,22.43
2018-08-25T22:50:31.413Z,15.54
2018-08-25T22:56:26.425Z,29.45
2018-08-25T23:02:21.462Z,18.65
2018-08-25T23:08:16.428Z,21.61
2018-08-25T23:14:11.428Z,25.33
2018-08-25T23:20:06.432Z,18.57
2018-08-25T23:26:01.436Z,24.73
2018-08-25T23:31:56.466Z,24.05
2018-08-25T23:37:51.463Z,21.51
2018-08-25T23:43:46.527Z,17.33
2018-08-25T23:49:41.508Z,24.13
2018-08-25T23:55:36.466Z,13.75
